sensor_id;sensor_type;location;lat;lon;timestamp;temperature;humidity
10536;DHT22;5316;49.538;8.352;2023-08-20T00:01:30;24.80;99.90
10536;DHT22;5316;49.538;8.352;2023-08-20T00:03:57;24.80;99.90
10536;DHT22;5316;49.538;8.352;2023-08-20T00:06:25;24.70;99.90
10536;DHT22;5316;49.538;8.352;2023-08-20T00:08:52;24.80;99.90
10536;DHT22;5316;49.538;8.352;2023-08-20T00:11:19;24.70;99.90
10536;DHT22;5316;49.538;8.352;2023-08-20T00:13:46;24.70;99.90
10536;DHT22;5316;49.538;8.352;2023-08-20T00:16:14;24.60;99.90
10536;DHT22;5316;49.538;8.352;2023-08-20T00:18:43;24.60;99.90
10536;DHT22;5316;49.538;8.352;2023-08-20T00:21:13;24.50;99.90
10536;DHT22;5316;49.538;8.352;2023-08-20T00:23:40;24.50;99.90
10536;DHT22;5316;49.538;8.352;2023-08-20T00:26:08;24.40;1.00
10536;DHT22;5316;49.538;8.352;2023-08-20T00:28:35;24.50;1.00
10536;DHT22;5316;49.538;8.352;2023-08-20T00:31:04;24.50;1.00
10536;DHT22;5316;49.538;8.352;2023-08-20T00:33:31;24.40;1.00
10536;DHT22;5316;49.538;8.352;2023-08-20T00:36:00;24.40;1.00
10536;DHT22;5316;49.538;8.352;2023-08-20T00:38:27;24.30;1.00
10536;DHT22;5316;49.538;8.352;2023-08-20T00:40:54;24.40;1.00
10536;DHT22;5316;49.538;8.352;2023-08-20T00:43:21;24.30;1.00
10536;DHT22;5316;49.538;8.352;2023-08-20T00:45:48;24.40;1.00
10536;DHT22;5316;49.538;8.352;2023-08-20T00:48:16;24.40;1.00
10536;DHT22;5316;49.538;8.352;2023-08-20T00:50:44;24.30;1.00
10536;DHT22;5316;49.538;8.352;2023-08-20T00:53:14;24.20;1.00
10536;DHT22;5316;49.538;8.352;2023-08-20T00:55:42;24.20;1.00
10536;DHT22;5316;49.538;8.352;2023-08-20T00:58:10;24.10;1.00
10536;DHT22;5316;49.538;8.352;2023-08-20T01:00:37;24.00;1.00
10536;DHT22;5316;49.538;8.352;2023-08-20T01:03:04;24.00;1.00
10536;DHT22;5316;49.538;8.352;2023-08-20T01:05:33;24.10;1.00
10536;DHT22;5316;49.538;8.352;2023-08-20T01:08:13;24.00;1.00
10536;DHT22;5316;49.538;8.352;2023-08-20T01:10:49;24.00;1.00
10536;DHT22;5316;49.538;8.352;2023-08-20T01:13:18;23.90;1.00
10536;DHT22;5316;49.538;8.352;2023-08-20T01:15:45;24.00;1.00
10536;DHT22;5316;49.538;8.352;2023-08-20T01:18:12;23.90;1.00
10536;DHT22;5316;49.538;8.352;2023-08-20T01:20:44;23.90;1.00
10536;DHT22;5316;49.538;8.352;2023-08-20T01:23:48;23.80;1.00
10536;DHT22;5316;49.538;8.352;2023-08-20T01:26:40;23.80;1.00
10536;DHT22;5316;49.538;8.352;2023-08-20T01:29:16;23.80;1.00
10536;DHT22;5316;49.538;8.352;2023-08-20T01:31:44;23.80;1.00
10536;DHT22;5316;49.538;8.352;2023-08-20T01:34:11;23.80;1.00
10536;DHT22;5316;49.538;8.352;2023-08-20T01:36:39;23.80;1.00
10536;DHT22;5316;49.538;8.352;2023-08-20T01:39:05;23.80;1.00
10536;DHT22;5316;49.538;8.352;2023-08-20T01:41:33;23.80;1.00
10536;DHT22;5316;49.538;8.352;2023-08-20T01:44:00;23.80;1.00
10536;DHT22;5316;49.538;8.352;2023-08-20T01:46:29;23.80;1.00
10536;DHT22;5316;49.538;8.352;2023-08-20T01:48:56;23.80;1.00
10536;DHT22;5316;49.538;8.352;2023-08-20T01:51:23;23.80;1.00
10536;DHT22;5316;49.538;8.352;2023-08-20T01:53:50;23.70;1.00
10536;DHT22;5316;49.538;8.352;2023-08-20T01:56:17;23.70;1.00
10536;DHT22;5316;49.538;8.352;2023-08-20T01:58:46;23.70;1.00
10536;DHT22;5316;49.538;8.352;2023-08-20T02:01:13;23.60;1.00
10536;DHT22;5316;49.538;8.352;2023-08-20T02:03:42;23.60;1.00
10536;DHT22;5316;49.538;8.352;2023-08-20T02:06:09;23.60;1.00
10536;DHT22;5316;49.538;8.352;2023-08-20T02:08:36;23.60;1.00
10536;DHT22;5316;49.538;8.352;2023-08-20T02:11:04;23.60;1.00
10536;DHT22;5316;49.538;8.352;2023-08-20T02:13:31;23.60;1.00
10536;DHT22;5316;49.538;8.352;2023-08-20T02:15:59;23.50;49.50
10536;DHT22;5316;49.538;8.352;2023-08-20T02:18:27;23.40;96.50
10536;DHT22;5316;49.538;8.352;2023-08-20T02:20:55;23.40;99.90
10536;DHT22;5316;49.538;8.352;2023-08-20T02:23:23;23.30;99.90
10536;DHT22;5316;49.538;8.352;2023-08-20T02:25:50;23.20;99.90
10536;DHT22;5316;49.538;8.352;2023-08-20T02:28:17;23.10;99.90
10536;DHT22;5316;49.538;8.352;2023-08-20T02:30:45;23.10;99.90
10536;DHT22;5316;49.538;8.352;2023-08-20T02:33:14;23.00;99.90
10536;DHT22;5316;49.538;8.352;2023-08-20T02:35:41;23.10;99.90
10536;DHT22;5316;49.538;8.352;2023-08-20T02:38:11;23.00;99.90
10536;DHT22;5316;49.538;8.352;2023-08-20T02:40:41;23.00;99.90
10536;DHT22;5316;49.538;8.352;2023-08-20T02:43:09;22.90;99.90
10536;DHT22;5316;49.538;8.352;2023-08-20T02:45:40;22.90;99.90
10536;DHT22;5316;49.538;8.352;2023-08-20T02:48:08;22.90;99.90
10536;DHT22;5316;49.538;8.352;2023-08-20T02:50:35;22.90;99.90
10536;DHT22;5316;49.538;8.352;2023-08-20T02:53:03;22.80;99.90
10536;DHT22;5316;49.538;8.352;2023-08-20T02:55:32;22.80;99.90
10536;DHT22;5316;49.538;8.352;2023-08-20T02:57:59;22.70;99.90
10536;DHT22;5316;49.538;8.352;2023-08-20T03:00:28;22.70;99.90
10536;DHT22;5316;49.538;8.352;2023-08-20T03:02:57;22.70;99.90
10536;DHT22;5316;49.538;8.352;2023-08-20T03:05:24;22.70;99.90
10536;DHT22;5316;49.538;8.352;2023-08-20T03:07:51;22.70;99.90
10536;DHT22;5316;49.538;8.352;2023-08-20T03:10:18;22.70;99.90
10536;DHT22;5316;49.538;8.352;2023-08-20T03:12:47;22.80;99.90
10536;DHT22;5316;49.538;8.352;2023-08-20T03:15:14;22.80;99.90
10536;DHT22;5316;49.538;8.352;2023-08-20T03:17:41;22.80;99.90
10536;DHT22;5316;49.538;8.352;2023-08-20T03:20:09;22.80;99.90
10536;DHT22;5316;49.538;8.352;2023-08-20T03:22:37;22.80;99.90
10536;DHT22;5316;49.538;8.352;2023-08-20T03:25:05;22.80;99.90
10536;DHT22;5316;49.538;8.352;2023-08-20T03:27:32;22.80;99.90
10536;DHT22;5316;49.538;8.352;2023-08-20T03:30:01;22.80;99.90
10536;DHT22;5316;49.538;8.352;2023-08-20T03:32:28;22.70;99.90
10536;DHT22;5316;49.538;8.352;2023-08-20T03:34:55;22.70;99.90
10536;DHT22;5316;49.538;8.352;2023-08-20T03:37:24;22.80;99.90
10536;DHT22;5316;49.538;8.352;2023-08-20T03:39:51;22.70;99.90
10536;DHT22;5316;49.538;8.352;2023-08-20T03:42:18;22.70;99.90
10536;DHT22;5316;49.538;8.352;2023-08-20T03:44:45;22.60;99.90
10536;DHT22;5316;49.538;8.352;2023-08-20T03:47:13;22.60;99.90
10536;DHT22;5316;49.538;8.352;2023-08-20T03:49:41;22.60;99.90
10536;DHT22;5316;49.538;8.352;2023-08-20T03:52:07;22.50;99.90
10536;DHT22;5316;49.538;8.352;2023-08-20T03:54:34;22.50;99.90
10536;DHT22;5316;49.538;8.352;2023-08-20T03:57:01;22.50;99.90
10536;DHT22;5316;49.538;8.352;2023-08-20T03:59:29;22.50;99.90
10536;DHT22;5316;49.538;8.352;2023-08-20T04:01:56;22.50;99.90
10536;DHT22;5316;49.538;8.352;2023-08-20T04:04:27;22.50;99.90
10536;DHT22;5316;49.538;8.352;2023-08-20T04:06:54;22.40;99.90
10536;DHT22;5316;49.538;8.352;2023-08-20T04:09:21;22.40;99.90
10536;DHT22;5316;49.538;8.352;2023-08-20T04:11:48;22.30;99.90
10536;DHT22;5316;49.538;8.352;2023-08-20T04:14:15;22.30;99.90
10536;DHT22;5316;49.538;8.352;2023-08-20T04:16:42;22.30;99.90
10536;DHT22;5316;49.538;8.352;2023-08-20T04:19:09;22.30;99.90
10536;DHT22;5316;49.538;8.352;2023-08-20T04:21:38;22.20;99.90
10536;DHT22;5316;49.538;8.352;2023-08-20T04:24:05;22.10;99.90
10536;DHT22;5316;49.538;8.352;2023-08-20T04:26:33;22.10;99.90
10536;DHT22;5316;49.538;8.352;2023-08-20T04:29:00;22.10;99.90
10536;DHT22;5316;49.538;8.352;2023-08-20T04:31:27;22.10;99.90
10536;DHT22;5316;49.538;8.352;2023-08-20T04:33:55;22.10;99.90
10536;DHT22;5316;49.538;8.352;2023-08-20T04:36:22;22.00;99.90
10536;DHT22;5316;49.538;8.352;2023-08-20T04:38:50;22.10;99.90
10536;DHT22;5316;49.538;8.352;2023-08-20T04:41:17;22.10;99.90
10536;DHT22;5316;49.538;8.352;2023-08-20T04:43:44;22.10;99.90
10536;DHT22;5316;49.538;8.352;2023-08-20T04:46:11;22.10;99.90
10536;DHT22;5316;49.538;8.352;2023-08-20T04:48:38;22.20;99.90
10536;DHT22;5316;49.538;8.352;2023-08-20T04:51:05;22.20;99.90
10536;DHT22;5316;49.538;8.352;2023-08-20T04:53:32;22.20;99.90
10536;DHT22;5316;49.538;8.352;2023-08-20T04:58:32;22.30;99.90
10536;DHT22;5316;49.538;8.352;2023-08-20T05:00:58;22.40;99.90
10536;DHT22;5316;49.538;8.352;2023-08-20T05:03:25;22.50;99.90
10536;DHT22;5316;49.538;8.352;2023-08-20T05:05:52;22.60;99.90
10536;DHT22;5316;49.538;8.352;2023-08-20T05:08:20;22.60;99.90
10536;DHT22;5316;49.538;8.352;2023-08-20T05:10:47;22.70;99.90
10536;DHT22;5316;49.538;8.352;2023-08-20T05:13:16;22.70;99.90
10536;DHT22;5316;49.538;8.352;2023-08-20T05:15:46;22.80;99.90
10536;DHT22;5316;49.538;8.352;2023-08-20T05:18:13;22.90;99.90
10536;DHT22;5316;49.538;8.352;2023-08-20T05:20:40;22.90;99.90
10536;DHT22;5316;49.538;8.352;2023-08-20T05:23:07;23.00;99.90
10536;DHT22;5316;49.538;8.352;2023-08-20T05:25:34;23.10;99.90
10536;DHT22;5316;49.538;8.352;2023-08-20T05:28:02;23.10;99.90
10536;DHT22;5316;49.538;8.352;2023-08-20T05:30:29;23.10;99.90
10536;DHT22;5316;49.538;8.352;2023-08-20T05:32:58;23.10;99.90
10536;DHT22;5316;49.538;8.352;2023-08-20T05:35:24;23.20;99.90
10536;DHT22;5316;49.538;8.352;2023-08-20T05:37:51;23.20;99.90
10536;DHT22;5316;49.538;8.352;2023-08-20T05:40:18;23.30;99.90
10536;DHT22;5316;49.538;8.352;2023-08-20T05:42:46;23.40;99.10
10536;DHT22;5316;49.538;8.352;2023-08-20T05:45:13;23.40;74.60
10536;DHT22;5316;49.538;8.352;2023-08-20T05:47:40;23.60;32.00
10536;DHT22;5316;49.538;8.352;2023-08-20T05:50:09;23.80;1.00
10536;DHT22;5316;49.538;8.352;2023-08-20T05:52:35;23.80;1.00
10536;DHT22;5316;49.538;8.352;2023-08-20T05:55:03;23.90;1.00
10536;DHT22;5316;49.538;8.352;2023-08-20T05:57:30;24.00;1.00
10536;DHT22;5316;49.538;8.352;2023-08-20T05:59:57;24.00;1.00
10536;DHT22;5316;49.538;8.352;2023-08-20T06:02:25;24.10;1.00
10536;DHT22;5316;49.538;8.352;2023-08-20T06:04:52;24.20;1.00
10536;DHT22;5316;49.538;8.352;2023-08-20T06:07:20;24.30;1.00
10536;DHT22;5316;49.538;8.352;2023-08-20T06:09:47;24.30;1.00
10536;DHT22;5316;49.538;8.352;2023-08-20T06:12:15;24.30;1.00
10536;DHT22;5316;49.538;8.352;2023-08-20T06:14:42;24.30;1.00
10536;DHT22;5316;49.538;8.352;2023-08-20T06:17:09;24.30;1.00
10536;DHT22;5316;49.538;8.352;2023-08-20T06:19:36;24.40;1.00
10536;DHT22;5316;49.538;8.352;2023-08-20T06:22:03;24.50;1.00
10536;DHT22;5316;49.538;8.352;2023-08-20T06:24:31;24.50;1.00
10536;DHT22;5316;49.538;8.352;2023-08-20T06:26:58;24.60;1.00
10536;DHT22;5316;49.538;8.352;2023-08-20T06:29:25;24.70;1.00
10536;DHT22;5316;49.538;8.352;2023-08-20T06:31:51;24.80;1.00
10536;DHT22;5316;49.538;8.352;2023-08-20T06:34:18;24.90;99.90
10536;DHT22;5316;49.538;8.352;2023-08-20T06:36:45;24.90;99.90
10536;DHT22;5316;49.538;8.352;2023-08-20T06:39:12;24.90;99.90
10536;DHT22;5316;49.538;8.352;2023-08-20T06:41:42;24.90;99.90
10536;DHT22;5316;49.538;8.352;2023-08-20T06:44:08;24.90;99.90
10536;DHT22;5316;49.538;8.352;2023-08-20T06:46:35;24.90;99.90
10536;DHT22;5316;49.538;8.352;2023-08-20T06:49:02;24.90;99.90
10536;DHT22;5316;49.538;8.352;2023-08-20T06:51:29;24.90;99.90
10536;DHT22;5316;49.538;8.352;2023-08-20T06:53:56;24.90;99.90
10536;DHT22;5316;49.538;8.352;2023-08-20T06:56:23;25.00;99.90
10536;DHT22;5316;49.538;8.352;2023-08-20T06:58:51;25.00;99.90
10536;DHT22;5316;49.538;8.352;2023-08-20T07:01:20;25.10;99.90
10536;DHT22;5316;49.538;8.352;2023-08-20T07:03:46;25.00;99.90
10536;DHT22;5316;49.538;8.352;2023-08-20T07:06:14;25.10;99.90
10536;DHT22;5316;49.538;8.352;2023-08-20T07:08:42;25.20;99.90
10536;DHT22;5316;49.538;8.352;2023-08-20T07:11:08;25.20;99.90
10536;DHT22;5316;49.538;8.352;2023-08-20T07:13:35;25.30;99.90
10536;DHT22;5316;49.538;8.352;2023-08-20T07:16:04;25.40;99.90
10536;DHT22;5316;49.538;8.352;2023-08-20T07:18:30;25.30;96.60
10536;DHT22;5316;49.538;8.352;2023-08-20T07:20:57;25.40;55.80
10536;DHT22;5316;49.538;8.352;2023-08-20T07:23:24;25.50;4.20
10536;DHT22;5316;49.538;8.352;2023-08-20T07:25:52;25.50;1.00
10536;DHT22;5316;49.538;8.352;2023-08-20T07:28:30;25.60;1.00
10536;DHT22;5316;49.538;8.352;2023-08-20T07:31:12;25.60;99.90
10536;DHT22;5316;49.538;8.352;2023-08-20T07:33:38;25.60;99.90
10536;DHT22;5316;49.538;8.352;2023-08-20T07:36:05;25.70;99.90
10536;DHT22;5316;49.538;8.352;2023-08-20T07:38:32;25.70;99.90
10536;DHT22;5316;49.538;8.352;2023-08-20T07:40:59;25.80;99.90
10536;DHT22;5316;49.538;8.352;2023-08-20T07:43:26;25.80;99.90
10536;DHT22;5316;49.538;8.352;2023-08-20T07:45:53;25.90;72.60
10536;DHT22;5316;49.538;8.352;2023-08-20T07:48:22;25.90;1.00
10536;DHT22;5316;49.538;8.352;2023-08-20T07:51:13;26.00;1.00
10536;DHT22;5316;49.538;8.352;2023-08-20T07:54:12;26.00;99.90
10536;DHT22;5316;49.538;8.352;2023-08-20T07:57:15;26.00;99.90
10536;DHT22;5316;49.538;8.352;2023-08-20T08:10:03;26.20;1.00
10536;DHT22;5316;49.538;8.352;2023-08-20T08:16:50;26.30;1.00
10536;DHT22;5316;49.538;8.352;2023-08-20T08:20:15;26.40;1.00
10536;DHT22;5316;49.538;8.352;2023-08-20T08:23:00;26.50;1.00
10536;DHT22;5316;49.538;8.352;2023-08-20T08:33:09;26.60;99.90
10536;DHT22;5316;49.538;8.352;2023-08-20T08:39:42;26.70;98.00
10536;DHT22;5316;49.538;8.352;2023-08-20T08:42:31;26.70;99.90
10536;DHT22;5316;49.538;8.352;2023-08-20T08:45:23;26.80;99.90
10536;DHT22;5316;49.538;8.352;2023-08-20T08:48:11;26.90;99.90
10536;DHT22;5316;49.538;8.352;2023-08-20T08:54:11;27.00;99.90
10536;DHT22;5316;49.538;8.352;2023-08-20T08:56:46;27.10;99.90
10536;DHT22;5316;49.538;8.352;2023-08-20T09:00:14;27.20;99.90
10536;DHT22;5316;49.538;8.352;2023-08-20T09:03:00;27.30;99.90
10536;DHT22;5316;49.538;8.352;2023-08-20T09:05:56;27.40;99.90
10536;DHT22;5316;49.538;8.352;2023-08-20T09:12:53;27.40;99.90
10536;DHT22;5316;49.538;8.352;2023-08-20T09:15:52;27.60;1.00
10536;DHT22;5316;49.538;8.352;2023-08-20T09:18:47;27.50;1.00
10536;DHT22;5316;49.538;8.352;2023-08-20T09:21:33;27.60;99.90
10536;DHT22;5316;49.538;8.352;2023-08-20T09:24:10;27.60;99.90
10536;DHT22;5316;49.538;8.352;2023-08-20T09:26:56;27.70;99.90
10536;DHT22;5316;49.538;8.352;2023-08-20T09:29:28;27.60;99.90
10536;DHT22;5316;49.538;8.352;2023-08-20T09:32:33;27.90;1.00
10536;DHT22;5316;49.538;8.352;2023-08-20T09:35:02;27.90;1.00
10536;DHT22;5316;49.538;8.352;2023-08-20T09:37:36;27.90;1.00
10536;DHT22;5316;49.538;8.352;2023-08-20T09:40:16;28.00;1.00
10536;DHT22;5316;49.538;8.352;2023-08-20T09:42:45;28.00;1.00
10536;DHT22;5316;49.538;8.352;2023-08-20T09:45:38;28.10;1.00
10536;DHT22;5316;49.538;8.352;2023-08-20T09:48:22;28.20;1.00
10536;DHT22;5316;49.538;8.352;2023-08-20T09:51:05;28.30;1.00
10536;DHT22;5316;49.538;8.352;2023-08-20T09:53:41;28.40;1.00
10536;DHT22;5316;49.538;8.352;2023-08-20T09:56:21;28.40;1.00
10536;DHT22;5316;49.538;8.352;2023-08-20T09:58:56;28.50;99.90
10536;DHT22;5316;49.538;8.352;2023-08-20T10:01:57;28.50;1.00
10536;DHT22;5316;49.538;8.352;2023-08-20T10:05:01;28.50;99.90
10536;DHT22;5316;49.538;8.352;2023-08-20T10:07:55;28.60;99.90
10536;DHT22;5316;49.538;8.352;2023-08-20T10:14:02;28.80;1.00
10536;DHT22;5316;49.538;8.352;2023-08-20T10:16:49;28.70;1.00
10536;DHT22;5316;49.538;8.352;2023-08-20T10:19:22;28.80;99.90
10536;DHT22;5316;49.538;8.352;2023-08-20T10:22:02;28.80;1.00
10536;DHT22;5316;49.538;8.352;2023-08-20T10:24:41;28.80;1.00
10536;DHT22;5316;49.538;8.352;2023-08-20T10:27:30;28.90;97.90
10536;DHT22;5316;49.538;8.352;2023-08-20T10:30:11;29.00;1.00
10536;DHT22;5316;49.538;8.352;2023-08-20T10:32:51;29.00;1.00
10536;DHT22;5316;49.538;8.352;2023-08-20T10:35:24;29.10;1.00
10536;DHT22;5316;49.538;8.352;2023-08-20T10:38:37;29.20;1.00
10536;DHT22;5316;49.538;8.352;2023-08-20T10:41:11;29.20;1.00
10536;DHT22;5316;49.538;8.352;2023-08-20T10:44:04;29.20;99.90
10536;DHT22;5316;49.538;8.352;2023-08-20T10:47:02;29.20;1.00
10536;DHT22;5316;49.538;8.352;2023-08-20T10:49:35;29.20;99.90
10536;DHT22;5316;49.538;8.352;2023-08-20T20:55:16;27.90;99.90
10536;DHT22;5316;49.538;8.352;2023-08-20T20:57:48;27.80;99.90
10536;DHT22;5316;49.538;8.352;2023-08-20T21:00:21;27.70;1.00
10536;DHT22;5316;49.538;8.352;2023-08-20T21:03:00;27.70;1.00
10536;DHT22;5316;49.538;8.352;2023-08-20T21:05:31;27.60;1.00
10536;DHT22;5316;49.538;8.352;2023-08-20T21:08:01;27.60;1.00
10536;DHT22;5316;49.538;8.352;2023-08-20T21:10:45;27.60;1.00
10536;DHT22;5316;49.538;8.352;2023-08-20T21:13:15;27.60;1.00
10536;DHT22;5316;49.538;8.352;2023-08-20T21:15:45;27.60;1.00
10536;DHT22;5316;49.538;8.352;2023-08-20T21:18:14;27.40;1.00
10536;DHT22;5316;49.538;8.352;2023-08-20T21:20:43;27.30;1.00
10536;DHT22;5316;49.538;8.352;2023-08-20T21:23:14;27.30;1.00
10536;DHT22;5316;49.538;8.352;2023-08-20T21:28:59;27.30;1.00
10536;DHT22;5316;49.538;8.352;2023-08-20T21:31:27;27.20;1.00
10536;DHT22;5316;49.538;8.352;2023-08-20T21:33:56;27.10;49.00
10536;DHT22;5316;49.538;8.352;2023-08-20T21:37:20;27.00;99.90
10536;DHT22;5316;49.538;8.352;2023-08-20T21:40:51;26.90;99.90
10536;DHT22;5316;49.538;8.352;2023-08-20T21:57:34;26.60;1.00
10536;DHT22;5316;49.538;8.352;2023-08-20T22:00:03;26.60;1.00
10536;DHT22;5316;49.538;8.352;2023-08-20T22:02:32;26.50;1.00
10536;DHT22;5316;49.538;8.352;2023-08-20T22:05:11;26.50;29.70
10536;DHT22;5316;49.538;8.352;2023-08-20T22:07:43;26.40;99.90
10536;DHT22;5316;49.538;8.352;2023-08-20T22:10:16;26.30;99.90
10536;DHT22;5316;49.538;8.352;2023-08-20T22:29:40;26.20;1.00
10536;DHT22;5316;49.538;8.352;2023-08-20T22:32:12;26.10;1.00
10536;DHT22;5316;49.538;8.352;2023-08-20T22:39:13;26.10;47.00
10536;DHT22;5316;49.538;8.352;2023-08-20T22:42:16;26.10;15.00
10536;DHT22;5316;49.538;8.352;2023-08-20T22:44:53;26.10;7.90
10536;DHT22;5316;49.538;8.352;2023-08-20T22:47:56;26.10;3.50
10536;DHT22;5316;49.538;8.352;2023-08-20T22:51:01;26.10;43.30
10536;DHT22;5316;49.538;8.352;2023-08-20T22:53:55;26.10;1.00
10536;DHT22;5316;49.538;8.352;2023-08-20T22:57:11;26.10;21.40
10536;DHT22;5316;49.538;8.352;2023-08-20T23:03:14;26.00;99.90
10536;DHT22;5316;49.538;8.352;2023-08-20T23:05:44;25.90;99.90
10536;DHT22;5316;49.538;8.352;2023-08-20T23:08:33;25.80;1.00
10536;DHT22;5316;49.538;8.352;2023-08-20T23:11:18;25.70;1.00
10536;DHT22;5316;49.538;8.352;2023-08-20T23:14:04;25.80;1.00
10536;DHT22;5316;49.538;8.352;2023-08-20T23:16:58;25.70;93.90
10536;DHT22;5316;49.538;8.352;2023-08-20T23:25:59;25.50;99.90
10536;DHT22;5316;49.538;8.352;2023-08-20T23:28:27;25.50;99.90
10536;DHT22;5316;49.538;8.352;2023-08-20T23:30:56;25.50;99.90
10536;DHT22;5316;49.538;8.352;2023-08-20T23:33:41;25.50;99.90
10536;DHT22;5316;49.538;8.352;2023-08-20T23:36:21;25.40;1.00
10536;DHT22;5316;49.538;8.352;2023-08-20T23:38:51;25.40;1.00
10536;DHT22;5316;49.538;8.352;2023-08-20T23:44:23;25.30;1.00
10536;DHT22;5316;49.538;8.352;2023-08-20T23:47:30;25.20;99.90
10536;DHT22;5316;49.538;8.352;2023-08-20T23:50:17;25.20;99.90
10536;DHT22;5316;49.538;8.352;2023-08-20T23:52:59;25.10;1.00
10536;DHT22;5316;49.538;8.352;2023-08-20T23:55:27;25.10;1.00
10536;DHT22;5316;49.538;8.352;2023-08-20T23:57:58;25.10;1.00
